Time;durP1;ratioP1;P1;durP2;ratioP2;P2;SDS_P1;SDS_P2;PMS_P1;PMS_P2;Temp;Humidity;BMP_temperature;BMP_pressure;BME280_temperature;BME280_humidity;BME280_pressure;Samples;Min_cycle;Max_cycle;Signal;HPM_P1;HPM_P2
2022/05/01 00:01:11;;;;;;;22.52;14.13;;;;;;;;;;5008611;28;20327;-77
2022/05/01 00:03:39;;;;;;;25.42;15.23;;;;;;;;;;5012999;28;20041;-77
2022/05/01 00:06:09;;;;;;;24.05;15.77;;;;;;;;;;5007550;28;20548;-75
2022/05/01 00:08:36;;;;;;;27.20;16.20;;;;;;;;;;5007347;28;20030;-76
2022/05/01 00:11:03;;;;;;;23.35;14.30;;;;;;;;;;5012857;28;20125;-75
2022/05/01 00:13:29;;;;;;;22.48;15.38;;;;;;;;;;5007775;28;20073;-77
2022/05/01 00:15:55;;;;;;;25.63;13.68;;;;;;;;;;5009134;28;20526;-77
2022/05/01 00:18:21;;;;;;;23.80;14.48;;;;;;;;;;5009779;28;20057;-76
2022/05/01 00:20:48;;;;;;;25.15;13.65;;;;;;;;;;5012264;28;21412;-75
2022/05/01 00:23:14;;;;;;;25.55;15.82;;;;;;;;;;5004217;28;20444;-74
2022/05/01 00:25:42;;;;;;;23.83;14.95;;;;;;;;;;5008953;28;20046;-77
2022/05/01 00:28:08;;;;;;;25.75;14.32;;;;;;;;;;5009305;28;20088;-77
2022/05/01 00:30:34;;;;;;;24.35;15.38;;;;;;;;;;5008513;28;20173;-75
2022/05/01 00:38:30;;;;;;;21.00;13.52;;;;;;;;;;5006040;28;20309;-75
2022/05/01 00:40:57;;;;;;;25.10;14.18;;;;;;;;;;5009232;28;20041;-75
2022/05/01 00:43:23;;;;;;;25.80;13.32;;;;;;;;;;5011883;28;20142;-76
2022/05/01 00:45:49;;;;;;;23.77;14.27;;;;;;;;;;5002120;28;20041;-76
2022/05/01 00:48:15;;;;;;;21.08;13.13;;;;;;;;;;5011901;28;20356;-75
2022/05/01 00:50:43;;;;;;;21.67;13.15;;;;;;;;;;5006811;28;20141;-75
2022/05/01 00:53:09;;;;;;;23.40;13.98;;;;;;;;;;5009820;28;20069;-75
2022/05/01 00:55:38;;;;;;;23.52;13.02;;;;;;;;;;5003581;28;20029;-75
2022/05/01 00:58:06;;;;;;;23.13;14.23;;;;;;;;;;5009462;28;20038;-76
2022/05/01 01:00:32;;;;;;;21.65;13.27;;;;;;;;;;5009515;28;20037;-74
2022/05/01 01:02:59;;;;;;;20.77;13.85;;;;;;;;;;5009508;28;20046;-76
2022/05/01 01:05:25;;;;;;;20.70;13.27;;;;;;;;;;5011394;28;20105;-76
2022/05/01 01:07:52;;;;;;;23.05;13.80;;;;;;;;;;5010009;28;20026;-75
2022/05/01 01:10:19;;;;;;;19.50;13.27;;;;;;;;;;5006516;28;20104;-77
2022/05/01 01:12:54;;;;;;;21.80;14.25;;;;;;;;;;5009475;28;20033;-76
2022/05/01 01:15:29;;;;;;;23.25;12.45;;;;;;;;;;5008926;28;20045;-77
2022/05/01 01:17:56;;;;;;;23.33;12.98;;;;;;;;;;5006546;28;20022;-75
2022/05/01 01:20:26;;;;;;;18.75;11.68;;;;;;;;;;5006463;28;20044;-76
2022/05/01 01:22:53;;;;;;;19.45;13.52;;;;;;;;;;4995327;28;20080;-75
2022/05/01 01:25:22;;;;;;;20.17;12.07;;;;;;;;;;4995807;28;20281;-75
2022/05/01 01:27:48;;;;;;;20.73;13.45;;;;;;;;;;5004518;28;20036;-75
2022/05/01 01:33:01;;;;;;;21.52;12.88;;;;;;;;;;5004203;28;20036;-74
2022/05/01 01:35:27;;;;;;;20.08;12.73;;;;;;;;;;5001207;28;20102;-75
2022/05/01 01:37:55;;;;;;;24.73;13.38;;;;;;;;;;5005597;28;20418;-75
2022/05/01 01:40:22;;;;;;;21.33;13.18;;;;;;;;;;5011325;28;20033;-76
2022/05/01 01:42:53;;;;;;;26.35;14.93;;;;;;;;;;5005102;28;20046;-75
2022/05/01 01:45:20;;;;;;;26.15;13.32;;;;;;;;;;5007947;28;20504;-74
2022/05/01 01:47:49;;;;;;;21.15;12.85;;;;;;;;;;5018965;28;20037;-75
2022/05/01 01:50:17;;;;;;;21.73;13.85;;;;;;;;;;5012288;28;20486;-74
2022/05/01 01:52:46;;;;;;;24.05;14.63;;;;;;;;;;5005021;28;20026;-75
2022/05/01 01:55:14;;;;;;;21.00;13.15;;;;;;;;;;5007860;28;20429;-74
2022/05/01 01:57:41;;;;;;;22.95;13.85;;;;;;;;;;5006728;28;20391;-74
2022/05/01 02:00:07;;;;;;;23.67;13.48;;;;;;;;;;5012977;28;20055;-75
2022/05/01 02:02:33;;;;;;;23.48;13.30;;;;;;;;;;5007859;28;20097;-73
2022/05/01 02:04:59;;;;;;;24.00;14.48;;;;;;;;;;5006680;28;20356;-73
2022/05/01 02:07:28;;;;;;;26.58;14.30;;;;;;;;;;5003753;28;20029;-74
2022/05/01 02:09:54;;;;;;;28.17;13.95;;;;;;;;;;5000504;28;20025;-74
2022/05/01 02:12:20;;;;;;;22.92;12.48;;;;;;;;;;5006002;28;20105;-75
2022/05/01 02:14:47;;;;;;;22.58;14.20;;;;;;;;;;5006400;28;20080;-74
2022/05/01 02:17:13;;;;;;;19.95;14.10;;;;;;;;;;5008161;28;20040;-75
2022/05/01 02:19:39;;;;;;;25.50;14.57;;;;;;;;;;5008959;28;20036;-73
2022/05/01 02:22:05;;;;;;;22.98;13.82;;;;;;;;;;5007839;28;20040;-75
2022/05/01 02:24:31;;;;;;;24.17;13.63;;;;;;;;;;5005126;28;20117;-73
2022/05/01 02:26:57;;;;;;;20.70;12.63;;;;;;;;;;5003675;28;20052;-73
2022/05/01 02:29:23;;;;;;;24.67;13.73;;;;;;;;;;5007695;28;20101;-74
2022/05/01 02:31:53;;;;;;;21.70;12.85;;;;;;;;;;5008144;28;20026;-74
2022/05/01 02:34:23;;;;;;;24.40;14.13;;;;;;;;;;5012706;28;20025;-74
2022/05/01 02:36:51;;;;;;;21.33;13.80;;;;;;;;;;5004507;28;20121;-74
2022/05/01 02:39:17;;;;;;;23.38;13.70;;;;;;;;;;5006112;28;20026;-74
2022/05/01 02:41:43;;;;;;;20.90;13.60;;;;;;;;;;5003939;28;20030;-75
2022/05/01 02:44:10;;;;;;;18.95;12.52;;;;;;;;;;5008604;28;20480;-76
2022/05/01 02:46:36;;;;;;;23.50;12.88;;;;;;;;;;5006159;28;20100;-73
2022/05/01 02:49:04;;;;;;;22.25;13.05;;;;;;;;;;5006784;28;20053;-74
2022/05/01 02:51:31;;;;;;;24.90;13.35;;;;;;;;;;5004589;28;20141;-75
2022/05/01 02:53:58;;;;;;;19.08;12.60;;;;;;;;;;5012109;28;20087;-76
2022/05/01 02:56:26;;;;;;;20.90;14.10;;;;;;;;;;5007446;28;20049;-73
2022/05/01 02:58:53;;;;;;;26.52;12.75;;;;;;;;;;5009502;28;20018;-74
2022/05/01 03:01:19;;;;;;;21.70;12.23;;;;;;;;;;5008869;28;20066;-75
2022/05/01 03:03:45;;;;;;;23.63;13.18;;;;;;;;;;5009115;28;20045;-73
2022/05/01 03:06:11;;;;;;;21.27;12.68;;;;;;;;;;5004325;28;20056;-73
2022/05/01 03:08:37;;;;;;;21.05;12.02;;;;;;;;;;5012814;28;20029;-74
2022/05/01 03:11:03;;;;;;;22.45;14.40;;;;;;;;;;5005697;28;20053;-75
2022/05/01 03:13:29;;;;;;;19.77;12.07;;;;;;;;;;5006631;28;20147;-74
2022/05/01 03:15:55;;;;;;;19.33;13.20;;;;;;;;;;5009904;28;20132;-75
2022/05/01 03:23:51;;;;;;;24.20;12.88;;;;;;;;;;5008609;28;20046;-75
2022/05/01 03:26:18;;;;;;;19.95;12.65;;;;;;;;;;5011499;28;20480;-75
2022/05/01 03:28:44;;;;;;;20.30;13.38;;;;;;;;;;5012578;28;20030;-75
2022/05/01 03:31:11;;;;;;;20.70;12.02;;;;;;;;;;5010996;28;20029;-75
2022/05/01 03:33:37;;;;;;;26.25;13.70;;;;;;;;;;5019854;28;20026;-74
2022/05/01 03:36:07;;;;;;;20.27;12.80;;;;;;;;;;5012842;28;20612;-75
2022/05/01 03:38:36;;;;;;;22.05;13.75;;;;;;;;;;5013682;28;20018;-74
2022/05/01 03:41:04;;;;;;;19.25;12.32;;;;;;;;;;5013129;28;20459;-74
2022/05/01 03:43:31;;;;;;;22.67;13.75;;;;;;;;;;5013598;28;20137;-75
2022/05/01 03:45:57;;;;;;;19.58;12.15;;;;;;;;;;5010487;28;20092;-74
2022/05/01 03:48:23;;;;;;;23.33;13.90;;;;;;;;;;5010548;28;20098;-74
2022/05/01 03:50:51;;;;;;;20.45;13.38;;;;;;;;;;5008840;28;20441;-74
2022/05/01 03:53:17;;;;;;;20.60;13.20;;;;;;;;;;5008412;28;20130;-75
2022/05/01 03:55:43;;;;;;;19.63;13.50;;;;;;;;;;5005278;28;20125;-74
2022/05/01 03:58:09;;;;;;;21.52;13.65;;;;;;;;;;5006770;28;20109;-75
2022/05/01 04:00:35;;;;;;;25.55;13.93;;;;;;;;;;5009244;28;20030;-74
2022/05/01 04:03:02;;;;;;;24.63;13.32;;;;;;;;;;5008249;28;20033;-74
2022/05/01 04:05:28;;;;;;;22.15;13.55;;;;;;;;;;5009148;28;20041;-75
2022/05/01 04:07:54;;;;;;;20.98;12.70;;;;;;;;;;5007052;28;20049;-74
2022/05/01 04:10:20;;;;;;;19.75;12.88;;;;;;;;;;5012039;28;20105;-73
2022/05/01 04:12:47;;;;;;;17.90;13.32;;;;;;;;;;5012583;28;20072;-74
2022/05/01 04:15:14;;;;;;;23.15;13.13;;;;;;;;;;5004653;28;20111;-75
2022/05/01 04:17:42;;;;;;;22.85;13.90;;;;;;;;;;5012990;28;20145;-75
2022/05/01 04:20:10;;;;;;;22.48;13.02;;;;;;;;;;5006128;28;20029;-74
2022/05/01 04:22:38;;;;;;;24.48;14.23;;;;;;;;;;5008541;28;20025;-76
2022/05/01 04:25:14;;;;;;;23.30;12.07;;;;;;;;;;5012534;28;20061;-75
2022/05/01 04:27:41;;;;;;;22.27;13.20;;;;;;;;;;5006832;28;20712;-73
2022/05/01 04:30:07;;;;;;;23.42;14.18;;;;;;;;;;5009944;28;20030;-74
2022/05/01 04:32:33;;;;;;;19.27;12.60;;;;;;;;;;5008148;28;20062;-74
2022/05/01 04:34:59;;;;;;;22.33;13.32;;;;;;;;;;5014610;28;20111;-73
2022/05/01 04:37:25;;;;;;;23.05;13.55;;;;;;;;;;5006048;28;20445;-74
2022/05/01 04:39:51;;;;;;;20.52;13.68;;;;;;;;;;5010343;28;20157;-75
2022/05/01 04:42:18;;;;;;;22.55;13.80;;;;;;;;;;5009239;28;20033;-72
2022/05/01 04:44:44;;;;;;;22.17;12.60;;;;;;;;;;5012320;28;20108;-74
2022/05/01 04:47:10;;;;;;;22.65;13.77;;;;;;;;;;5009547;28;20481;-74
2022/05/01 04:49:36;;;;;;;20.65;13.00;;;;;;;;;;5012664;28;20034;-74
2022/05/01 04:52:02;;;;;;;24.15;14.27;;;;;;;;;;5007810;28;20033;-74
2022/05/01 04:54:28;;;;;;;21.95;13.18;;;;;;;;;;5006846;28;20034;-74
2022/05/01 04:57:09;;;;;;;21.67;12.95;;;;;;;;;;5008020;28;20121;-74
2022/05/01 04:59:35;;;;;;;19.08;12.45;;;;;;;;;;5009765;28;20212;-75
2022/05/01 05:02:03;;;;;;;26.38;14.05;;;;;;;;;;5007724;28;20041;-74
2022/05/01 05:04:29;;;;;;;21.38;13.32;;;;;;;;;;5009058;28;20144;-75
2022/05/01 05:06:55;;;;;;;21.27;13.45;;;;;;;;;;5008147;28;20029;-75
2022/05/01 05:12:07;;;;;;;22.77;14.55;;;;;;;;;;5011282;28;20514;-73
2022/05/01 05:14:34;;;;;;;22.63;12.85;;;;;;;;;;5010147;28;20057;-74
2022/05/01 05:17:01;;;;;;;21.83;12.77;;;;;;;;;;5015080;28;20045;-74
2022/05/01 05:19:27;;;;;;;27.48;14.18;;;;;;;;;;5015232;28;20503;-75
2022/05/01 05:21:53;;;;;;;26.48;14.35;;;;;;;;;;5013073;28;20052;-74
2022/05/01 05:24:19;;;;;;;25.02;14.95;;;;;;;;;;5006163;28;20035;-74
2022/05/01 05:26:46;;;;;;;23.00;14.15;;;;;;;;;;5005807;28;20468;-75
2022/05/01 05:29:12;;;;;;;23.08;14.40;;;;;;;;;;5009491;28;20457;-74
2022/05/01 05:31:38;;;;;;;22.92;14.88;;;;;;;;;;5005710;28;20160;-75
2022/05/01 05:34:04;;;;;;;24.55;15.18;;;;;;;;;;5005981;28;20265;-74
2022/05/01 05:36:30;;;;;;;24.42;13.90;;;;;;;;;;5008874;28;20045;-74
2022/05/01 05:38:56;;;;;;;23.38;13.85;;;;;;;;;;5007597;28;20042;-74
2022/05/01 05:41:22;;;;;;;28.38;15.38;;;;;;;;;;5000715;28;20026;-74
2022/05/01 05:43:48;;;;;;;23.05;12.93;;;;;;;;;;5010440;28;20079;-74
2022/05/01 05:46:15;;;;;;;23.38;13.77;;;;;;;;;;5004605;28;20164;-74
2022/05/01 05:48:41;;;;;;;23.42;14.27;;;;;;;;;;5009931;28;20040;-74
2022/05/01 05:51:07;;;;;;;27.77;14.85;;;;;;;;;;5011980;28;20461;-74
2022/05/01 05:53:33;;;;;;;28.88;14.45;;;;;;;;;;5012454;28;20044;-74
2022/05/01 05:55:59;;;;;;;25.20;16.25;;;;;;;;;;5010816;28;20037;-75
2022/05/01 05:58:25;;;;;;;27.73;15.23;;;;;;;;;;5009514;28;20436;-74
2022/05/01 06:00:52;;;;;;;24.30;14.77;;;;;;;;;;5012103;28;20028;-76
2022/05/01 06:03:21;;;;;;;26.40;14.85;;;;;;;;;;5008653;28;20428;-74
2022/05/01 06:05:47;;;;;;;27.92;14.80;;;;;;;;;;5008181;28;20033;-74
2022/05/01 06:08:15;;;;;;;25.38;14.55;;;;;;;;;;5009420;28;20033;-76
2022/05/01 06:10:41;;;;;;;22.50;14.43;;;;;;;;;;5009917;28;20022;-75
2022/05/01 06:13:07;;;;;;;26.83;15.43;;;;;;;;;;5006652;28;20501;-76
2022/05/01 06:15:33;;;;;;;25.15;15.15;;;;;;;;;;5005124;28;20093;-75
2022/05/01 06:17:59;;;;;;;27.85;14.85;;;;;;;;;;5007720;28;20018;-74
2022/05/01 06:20:26;;;;;;;27.75;15.00;;;;;;;;;;5013083;28;20052;-74
2022/05/01 06:22:52;;;;;;;28.15;14.30;;;;;;;;;;5005116;28;20028;-76
2022/05/01 06:25:19;;;;;;;23.02;14.07;;;;;;;;;;5008391;28;20504;-75
2022/05/01 06:27:45;;;;;;;21.52;13.23;;;;;;;;;;5008050;28;20052;-75
2022/05/01 06:30:11;;;;;;;21.30;12.90;;;;;;;;;;5010518;28;20030;-75
2022/05/01 06:32:40;;;;;;;26.63;14.90;;;;;;;;;;5011073;28;20041;-76
2022/05/01 06:35:07;;;;;;;24.20;13.98;;;;;;;;;;5007896;28;20034;-74
2022/05/01 06:37:37;;;;;;;24.20;14.13;;;;;;;;;;5011514;28;20023;-74
2022/05/01 06:40:04;;;;;;;25.17;14.38;;;;;;;;;;5010543;28;20046;-74
2022/05/01 06:42:30;;;;;;;28.38;16.00;;;;;;;;;;5004465;28;20092;-75
2022/05/01 06:44:56;;;;;;;26.88;15.57;;;;;;;;;;5003062;28;20427;-74
2022/05/01 06:47:23;;;;;;;25.50;14.82;;;;;;;;;;5009288;28;20079;-75
2022/05/01 06:49:49;;;;;;;26.00;13.80;;;;;;;;;;5015630;28;20026;-75
2022/05/01 06:52:25;;;;;;;24.85;14.63;;;;;;;;;;5022597;28;20026;-73
2022/05/01 06:54:54;;;;;;;29.83;13.95;;;;;;;;;;5012830;28;20036;-75
2022/05/01 06:57:20;;;;;;;28.30;14.30;;;;;;;;;;5007663;28;20403;-75
2022/05/01 06:59:46;;;;;;;27.23;14.18;;;;;;;;;;5013776;28;20089;-75
2022/05/01 07:02:14;;;;;;;24.30;13.98;;;;;;;;;;5017152;28;20045;-74
2022/05/01 07:04:40;;;;;;;23.42;14.32;;;;;;;;;;5008484;28;20077;-74
2022/05/01 07:07:06;;;;;;;26.02;13.68;;;;;;;;;;5020033;28;20551;-74
2022/05/01 07:09:33;;;;;;;29.35;14.55;;;;;;;;;;5015403;28;20105;-73
2022/05/01 07:11:59;;;;;;;22.67;13.85;;;;;;;;;;5013275;28;20033;-75
2022/05/01 07:14:25;;;;;;;25.85;12.98;;;;;;;;;;5015372;28;20050;-74
2022/05/01 07:16:51;;;;;;;24.27;14.60;;;;;;;;;;5010760;28;20621;-76
2022/05/01 07:19:17;;;;;;;24.55;14.38;;;;;;;;;;5030002;28;20053;-74
2022/05/01 07:21:43;;;;;;;27.70;15.23;;;;;;;;;;5017456;28;20025;-75
2022/05/01 07:24:10;;;;;;;25.50;15.10;;;;;;;;;;5012889;28;20025;-74
2022/05/01 07:26:36;;;;;;;22.48;13.38;;;;;;;;;;5012496;28;20026;-76
2022/05/01 07:29:02;;;;;;;25.20;14.18;;;;;;;;;;5014400;28;20030;-75
2022/05/01 07:31:29;;;;;;;25.75;13.75;;;;;;;;;;5015124;28;20025;-73
2022/05/01 07:33:55;;;;;;;21.60;13.40;;;;;;;;;;5022353;28;20109;-73
2022/05/01 07:36:21;;;;;;;22.00;13.68;;;;;;;;;;5015278;28;20361;-73
2022/05/01 07:38:49;;;;;;;20.50;13.68;;;;;;;;;;5009188;28;20144;-75
2022/05/01 07:41:16;;;;;;;20.65;12.45;;;;;;;;;;5011108;28;20022;-73
2022/05/01 07:43:43;;;;;;;23.35;14.65;;;;;;;;;;5016715;28;20021;-75
2022/05/01 07:46:09;;;;;;;26.60;13.40;;;;;;;;;;5015418;28;20564;-74
2022/05/01 07:48:35;;;;;;;23.20;12.38;;;;;;;;;;5016841;28;20031;-73
2022/05/01 07:51:01;;;;;;;22.40;13.32;;;;;;;;;;5018343;28;20139;-73
2022/05/01 07:53:28;;;;;;;26.58;13.52;;;;;;;;;;5015197;28;20030;-75
2022/05/01 07:55:54;;;;;;;23.75;12.85;;;;;;;;;;5016917;28;20033;-75
2022/05/01 07:58:20;;;;;;;20.00;12.38;;;;;;;;;;5007254;28;20149;-75
2022/05/01 08:00:47;;;;;;;21.98;12.90;;;;;;;;;;5007610;28;20125;-75
2022/05/01 08:05:58;;;;;;;20.00;12.27;;;;;;;;;;5016811;28;20094;-73
2022/05/01 08:08:25;;;;;;;33.00;14.10;;;;;;;;;;5016227;28;20120;-76
2022/05/01 08:10:51;;;;;;;23.58;13.68;;;;;;;;;;5020218;28;20052;-74
2022/05/01 08:13:17;;;;;;;23.83;12.50;;;;;;;;;;5012413;28;20030;-75
2022/05/01 08:15:43;;;;;;;20.05;11.48;;;;;;;;;;5011223;28;20531;-73
2022/05/01 08:21:09;;;;;;;20.48;12.00;;;;;;;;;;5008949;28;20080;-73
2022/05/01 08:23:36;;;;;;;21.67;11.95;;;;;;;;;;5011945;28;20042;-73
2022/05/01 08:26:03;;;;;;;21.20;11.70;;;;;;;;;;5008128;28;20144;-75
2022/05/01 08:28:32;;;;;;;19.55;12.05;;;;;;;;;;5005117;28;20067;-75
2022/05/01 08:30:58;;;;;;;19.00;11.45;;;;;;;;;;4996320;28;20092;-75
2022/05/01 08:33:24;;;;;;;21.13;11.90;;;;;;;;;;4999204;28;20540;-75
2022/05/01 08:35:50;;;;;;;18.77;10.50;;;;;;;;;;5002945;28;20064;-73
2022/05/01 08:38:17;;;;;;;21.58;11.73;;;;;;;;;;4999315;28;20112;-74
2022/05/01 08:40:47;;;;;;;18.23;11.20;;;;;;;;;;5002743;28;20042;-74
2022/05/01 08:43:16;;;;;;;20.88;11.07;;;;;;;;;;5003714;28;20030;-75
2022/05/01 08:45:53;;;;;;;22.08;11.38;;;;;;;;;;5007593;28;20064;-73
2022/05/01 08:48:21;;;;;;;21.75;12.68;;;;;;;;;;4998820;28;20436;-75
2022/05/01 08:50:49;;;;;;;18.50;11.68;;;;;;;;;;4999503;28;20026;-75
2022/05/01 08:53:17;;;;;;;23.00;12.80;;;;;;;;;;5004913;28;20026;-74
2022/05/01 08:55:46;;;;;;;21.23;12.25;;;;;;;;;;5003152;28;20092;-74
2022/05/01 08:58:14;;;;;;;23.67;12.30;;;;;;;;;;4999374;28;20608;-74
2022/05/01 09:00:41;;;;;;;23.20;12.43;;;;;;;;;;5004904;28;20057;-74
2022/05/01 09:03:07;;;;;;;18.17;11.55;;;;;;;;;;5005560;28;20033;-75
2022/05/01 09:05:34;;;;;;;17.55;11.98;;;;;;;;;;4998757;28;20034;-74
2022/05/01 09:08:00;;;;;;;21.00;11.25;;;;;;;;;;5000506;28;20030;-73
2022/05/01 09:10:27;;;;;;;21.90;12.57;;;;;;;;;;5000422;28;20292;-75
2022/05/01 09:12:53;;;;;;;20.50;12.02;;;;;;;;;;5001766;28;20045;-75
2022/05/01 09:15:29;;;;;;;21.17;11.88;;;;;;;;;;4998702;28;20464;-75
2022/05/01 09:18:05;;;;;;;20.95;11.65;;;;;;;;;;5003166;28;20425;-76
2022/05/01 09:20:32;;;;;;;25.27;12.98;;;;;;;;;;5001940;28;20102;-73
2022/05/01 09:22:59;;;;;;;19.70;11.98;;;;;;;;;;4999427;28;20041;-74
2022/05/01 09:25:27;;;;;;;21.30;12.00;;;;;;;;;;5001257;28;20065;-74
2022/05/01 09:27:56;;;;;;;25.70;12.82;;;;;;;;;;4997250;28;20042;-74
2022/05/01 09:30:31;;;;;;;21.27;12.32;;;;;;;;;;5000149;28;20032;-76
2022/05/01 09:32:57;;;;;;;23.30;12.32;;;;;;;;;;5002645;28;20227;-74
2022/05/01 09:35:23;;;;;;;19.88;11.35;;;;;;;;;;4994681;28;20030;-75
2022/05/01 09:37:51;;;;;;;20.13;11.27;;;;;;;;;;4992445;28;20041;-74
2022/05/01 09:40:37;;;;;;;17.20;10.88;;;;;;;;;;5000272;28;20026;-74
2022/05/01 09:43:03;;;;;;;20.23;9.98;;;;;;;;;;4997476;28;20055;-74
2022/05/01 09:45:33;;;;;;;12.88;7.72;;;;;;;;;;5001924;28;20038;-74
2022/05/01 09:47:59;;;;;;;13.40;6.88;;;;;;;;;;4995679;28;20057;-74
2022/05/01 09:50:44;;;;;;;7.70;5.25;;;;;;;;;;4999472;28;20104;-74
2022/05/01 09:53:11;;;;;;;7.15;4.97;;;;;;;;;;5002453;28;20388;-75
2022/05/01 09:55:37;;;;;;;7.32;4.25;;;;;;;;;;4999710;28;20036;-75
2022/05/01 09:58:14;;;;;;;5.32;4.00;;;;;;;;;;4999850;28;20033;-75
2022/05/01 10:00:42;;;;;;;6.88;4.10;;;;;;;;;;5000007;28;20053;-75
2022/05/01 10:03:22;;;;;;;8.02;3.83;;;;;;;;;;4996834;28;20033;-75
2022/05/01 10:05:49;;;;;;;7.22;3.28;;;;;;;;;;5016854;28;20380;-74
2022/05/01 10:08:17;;;;;;;20.67;4.00;;;;;;;;;;4997695;28;20239;-75
2022/05/01 10:10:44;;;;;;;6.15;4.20;;;;;;;;;;4999059;28;20037;-75
2022/05/01 10:13:11;;;;;;;5.55;3.80;;;;;;;;;;4997492;28;20537;-73
2022/05/01 10:15:37;;;;;;;5.60;3.60;;;;;;;;;;5013884;28;20341;-74
2022/05/01 10:18:04;;;;;;;3.88;3.25;;;;;;;;;;4998641;28;20041;-74
2022/05/01 10:20:30;;;;;;;10.75;4.50;;;;;;;;;;4998665;28;20041;-75
2022/05/01 10:23:09;;;;;;;4.40;2.80;;;;;;;;;;5004606;28;20038;-75
2022/05/01 10:25:37;;;;;;;2.92;1.88;;;;;;;;;;5002494;28;20187;-75
2022/05/01 10:28:22;;;;;;;5.57;2.35;;;;;;;;;;4998017;28;20509;-74
2022/05/01 10:33:40;;;;;;;4.25;3.25;;;;;;;;;;5000571;28;20338;-75
2022/05/01 10:36:06;;;;;;;3.38;2.30;;;;;;;;;;5000147;28;20030;-74
2022/05/01 10:38:40;;;;;;;2.92;2.20;;;;;;;;;;5000194;28;20040;-74
2022/05/01 10:41:07;;;;;;;2.85;2.10;;;;;;;;;;5003154;28;21021;-74
2022/05/01 10:43:39;;;;;;;2.92;1.90;;;;;;;;;;5002644;28;20113;-74
2022/05/01 10:46:25;;;;;;;3.42;1.85;;;;;;;;;;4998848;28;20057;-75
2022/05/01 10:48:52;;;;;;;1.77;1.67;;;;;;;;;;4994381;28;20034;-73
2022/05/01 10:51:30;;;;;;;3.92;1.80;;;;;;;;;;4997456;28;20033;-74
2022/05/01 10:54:12;;;;;;;2.38;2.00;;;;;;;;;;4998668;28;20026;-74
2022/05/01 10:56:38;;;;;;;3.42;1.90;;;;;;;;;;4993950;28;20022;-74
2022/05/01 10:59:23;;;;;;;2.30;1.55;;;;;;;;;;5001052;28;20045;-75
2022/05/01 11:01:53;;;;;;;2.28;1.75;;;;;;;;;;4999337;28;20132;-73
2022/05/01 11:04:22;;;;;;;2.50;1.60;;;;;;;;;;5000351;28;20080;-73
2022/05/01 11:06:52;;;;;;;3.80;1.95;;;;;;;;;;5007174;28;20277;-73
2022/05/01 11:09:19;;;;;;;2.38;1.80;;;;;;;;;;5001881;28;20564;-73
2022/05/01 11:11:46;;;;;;;2.88;1.90;;;;;;;;;;4999987;28;20026;-73
2022/05/01 11:14:15;;;;;;;3.63;1.77;;;;;;;;;;4999062;28;20054;-73
2022/05/01 11:16:52;;;;;;;2.97;2.10;;;;;;;;;;4997144;28;20114;-73
2022/05/01 11:19:18;;;;;;;3.08;2.03;;;;;;;;;;5002241;28;20171;-73
2022/05/01 11:21:50;;;;;;;3.15;2.10;;;;;;;;;;5002177;28;20329;-73
2022/05/01 11:24:16;;;;;;;4.57;2.92;;;;;;;;;;4994797;28;20037;-75
2022/05/01 11:27:01;;;;;;;5.10;3.42;;;;;;;;;;4994797;28;20037;-73
2022/05/01 11:29:27;;;;;;;18.33;11.10;;;;;;;;;;4990780;28;20026;-74
2022/05/01 11:31:53;;;;;;;6.30;4.70;;;;;;;;;;5000708;28;20052;-74
2022/05/01 11:34:21;;;;;;;13.02;6.65;;;;;;;;;;4998585;28;20030;-74
2022/05/01 11:36:50;;;;;;;10.32;6.93;;;;;;;;;;4999805;28;20038;-75
2022/05/01 11:39:16;;;;;;;4.40;2.80;;;;;;;;;;5002983;28;20657;-73
2022/05/01 11:41:42;;;;;;;9.95;4.90;;;;;;;;;;4998982;28;20117;-74
2022/05/01 11:44:23;;;;;;;18.90;9.27;;;;;;;;;;5018842;28;20496;-74
2022/05/01 11:46:49;;;;;;;6.63;4.07;;;;;;;;;;5000699;28;20029;-74
2022/05/01 11:49:15;;;;;;;11.63;5.35;;;;;;;;;;5008245;28;20033;-73
2022/05/01 11:51:44;;;;;;;50.53;22.75;;;;;;;;;;5000808;28;20037;-73
2022/05/01 11:54:11;;;;;;;10.38;6.22;;;;;;;;;;5003563;28;20141;-73
2022/05/01 12:02:25;;;;;;;10.55;4.93;;;;;;;;;;5006512;28;20133;-73
2022/05/01 12:04:51;;;;;;;10.13;4.47;;;;;;;;;;5006063;28;20078;-74
2022/05/01 12:07:18;;;;;;;3.33;2.70;;;;;;;;;;5001579;28;20109;-73
2022/05/01 12:09:46;;;;;;;3.40;2.30;;;;;;;;;;5003260;28;20026;-74
2022/05/01 12:12:13;;;;;;;11.95;5.57;;;;;;;;;;5004755;28;20026;-74
2022/05/01 12:14:40;;;;;;;6.90;5.25;;;;;;;;;;5005149;28;20057;-74
2022/05/01 12:17:10;;;;;;;4.22;2.42;;;;;;;;;;5002608;28;20479;-75
2022/05/01 12:19:37;;;;;;;5.07;3.85;;;;;;;;;;5002623;28;20033;-75
2022/05/01 12:22:05;;;;;;;4.68;2.58;;;;;;;;;;5006831;28;20030;-75
2022/05/01 12:24:32;;;;;;;4.30;2.10;;;;;;;;;;5009304;28;20036;-75
2022/05/01 12:26:58;;;;;;;3.17;2.40;;;;;;;;;;5005274;28;20030;-74
2022/05/01 12:29:27;;;;;;;4.85;2.63;;;;;;;;;;5010111;28;20461;-74
2022/05/01 12:32:06;;;;;;;3.80;2.58;;;;;;;;;;5003263;28;20488;-75
2022/05/01 12:34:33;;;;;;;2.40;2.20;;;;;;;;;;5007027;28;20041;-75
2022/05/01 12:37:01;;;;;;;9.88;3.13;;;;;;;;;;5009521;28;20033;-75
2022/05/01 12:39:28;;;;;;;3.47;3.17;;;;;;;;;;5006229;28;20042;-74
2022/05/01 12:45:12;;;;;;;3.95;2.45;;;;;;;;;;5006541;28;20045;-74
2022/05/01 12:47:39;;;;;;;4.03;2.55;;;;;;;;;;5000095;28;20424;-75
2022/05/01 12:50:06;;;;;;;3.13;2.22;;;;;;;;;;5004460;28;20371;-75
2022/05/01 12:52:37;;;;;;;4.25;2.60;;;;;;;;;;5007604;28;20033;-74
2022/05/01 12:55:07;;;;;;;3.90;2.53;;;;;;;;;;5005570;28;20566;-74
2022/05/01 12:57:36;;;;;;;2.78;2.20;;;;;;;;;;5003501;28;20038;-74
2022/05/01 13:00:05;;;;;;;5.25;3.50;;;;;;;;;;5004271;28;20046;-74
2022/05/01 13:02:32;;;;;;;5.00;3.92;;;;;;;;;;5001488;28;20474;-74
2022/05/01 13:04:59;;;;;;;2.50;2.30;;;;;;;;;;5003760;28;20030;-75
2022/05/01 13:07:34;;;;;;;4.10;3.00;;;;;;;;;;5006607;28;20070;-74
2022/05/01 13:10:11;;;;;;;2.75;2.20;;;;;;;;;;5005163;28;20018;-75
2022/05/01 13:12:37;;;;;;;4.22;3.17;;;;;;;;;;5010761;28;20030;-73
2022/05/01 13:15:11;;;;;;;2.70;2.30;;;;;;;;;;5010615;28;20490;-73
2022/05/01 13:17:37;;;;;;;3.47;3.17;;;;;;;;;;5003813;28;20120;-74
2022/05/01 13:20:04;;;;;;;2.83;2.50;;;;;;;;;;4995177;28;20104;-73
2022/05/01 13:22:30;;;;;;;4.78;3.20;;;;;;;;;;5004390;28;20061;-74
2022/05/01 13:24:57;;;;;;;4.38;3.70;;;;;;;;;;4996463;28;20676;-74
2022/05/01 13:27:24;;;;;;;4.25;2.63;;;;;;;;;;5006090;28;20018;-74
2022/05/01 13:29:50;;;;;;;3.40;2.70;;;;;;;;;;4993817;28;20034;-74
2022/05/01 13:32:18;;;;;;;2.70;2.40;;;;;;;;;;4999291;28;20071;-73
2022/05/01 13:34:44;;;;;;;2.80;2.55;;;;;;;;;;5002785;28;20044;-75
2022/05/01 13:37:10;;;;;;;3.03;2.67;;;;;;;;;;5005973;28;20595;-74
2022/05/01 13:45:07;;;;;;;3.20;2.67;;;;;;;;;;5001051;28;20121;-75
2022/05/01 13:47:36;;;;;;;2.33;2.10;;;;;;;;;;5008555;28;20479;-74
2022/05/01 13:50:03;;;;;;;3.20;2.28;;;;;;;;;;5008849;28;20472;-74
2022/05/01 13:52:30;;;;;;;2.35;1.80;;;;;;;;;;5008598;28;20057;-73
2022/05/01 13:54:56;;;;;;;3.30;2.20;;;;;;;;;;5010070;28;20034;-75
2022/05/01 13:57:24;;;;;;;2.10;1.90;;;;;;;;;;4999453;28;20049;-73
2022/05/01 13:59:50;;;;;;;4.22;2.15;;;;;;;;;;5001599;28;20326;-73
2022/05/01 14:02:16;;;;;;;2.75;2.53;;;;;;;;;;5000566;28;20496;-74
2022/05/01 14:04:44;;;;;;;2.88;2.50;;;;;;;;;;5004619;28;20040;-74
2022/05/01 14:07:10;;;;;;;2.50;2.20;;;;;;;;;;5007040;28;20037;-75
2022/05/01 14:09:36;;;;;;;2.58;2.30;;;;;;;;;;5002095;28;20495;-75
2022/05/01 14:12:03;;;;;;;4.85;3.20;;;;;;;;;;4997786;28;20058;-74
2022/05/01 14:14:29;;;;;;;3.05;2.08;;;;;;;;;;5002403;28;20050;-75
2022/05/01 14:16:55;;;;;;;4.88;2.83;;;;;;;;;;4996720;28;20026;-74
2022/05/01 14:19:28;;;;;;;3.13;2.40;;;;;;;;;;5000399;28;20027;-77
2022/05/01 14:21:55;;;;;;;5.20;3.30;;;;;;;;;;4996344;28;20465;-75
2022/05/01 14:24:22;;;;;;;2.15;1.95;;;;;;;;;;5001274;28;20060;-75
2022/05/01 14:26:48;;;;;;;4.40;4.00;;;;;;;;;;4997280;28;20070;-74
2022/05/01 14:29:14;;;;;;;6.75;4.72;;;;;;;;;;4997935;28;20087;-75
2022/05/01 14:32:01;;;;;;;6.25;4.93;;;;;;;;;;4999346;28;20480;-75
2022/05/01 14:34:33;;;;;;;2.97;2.60;;;;;;;;;;4992838;28;20096;-74
2022/05/01 14:37:00;;;;;;;3.92;3.53;;;;;;;;;;5001074;28;20041;-75
2022/05/01 14:39:27;;;;;;;5.28;4.72;;;;;;;;;;4998783;28;20033;-75
2022/05/01 14:41:57;;;;;;;5.78;4.65;;;;;;;;;;4993514;28;20022;-74
2022/05/01 14:44:34;;;;;;;16.50;13.52;;;;;;;;;;5001774;28;20397;-74
2022/05/01 14:47:07;;;;;;;7.45;6.75;;;;;;;;;;5001434;28;20026;-74
2022/05/01 14:49:35;;;;;;;3.70;3.20;;;;;;;;;;5003780;28;20053;-75
2022/05/01 14:52:03;;;;;;;3.33;2.78;;;;;;;;;;5003677;28;20381;-74
2022/05/01 14:54:31;;;;;;;2.42;2.22;;;;;;;;;;5001503;28;20102;-75
2022/05/01 14:56:59;;;;;;;2.15;2.00;;;;;;;;;;5007154;28;20084;-74
2022/05/01 15:07:46;;;;;;;3.05;2.58;;;;;;;;;;4993489;28;20045;-75
2022/05/01 15:10:13;;;;;;;2.35;2.05;;;;;;;;;;4995443;28;20033;-75
2022/05/01 15:12:39;;;;;;;2.15;1.95;;;;;;;;;;5007543;28;20025;-75
2022/05/01 15:15:05;;;;;;;2.20;1.75;;;;;;;;;;5008761;28;20045;-75
2022/05/01 15:17:33;;;;;;;3.00;2.70;;;;;;;;;;5011818;28;20056;-73